Latest Weather Observations for Keith West

IDS60801

Issued at 10:05 am CST Saturday 2 August 2014 (issued every 30 minutes, with the page automatically refreshed every 10 minutes)

About weather observations | Map of weather stations | Latest weather observations for SA | Other Formats
Station Details ID: 025557 Name: MUNKORA Lat: -36.11 Lon: 140.33 Height: 27.0 m
Data from the previous 72 hours. | See also: Recent months for locations in South Australia
Date/Time
CST
Temp
°C
App
Temp
°C
Dew
Point
Rel
Hum
%
Delta-T
°C
Wind Press
QNH
hPa
Press
MSL
hPa
Rain
since 9 am
mm
Dir
 
Spd
km/h
Gust
km/h
Spd
kts
Gust
kts
02/10:00am 8.9 6.5 4.1 72 2.1 NW 6 9 3 5 1032.5 - 0.0
02/09:30am 7.4 5.0 4.2 80 1.4 N 6 7 3 4 1032.3 1032.3 0.0
02/09:00am 5.5 3.3 3.3 86 0.9 N 4 4 2 2 1032.2 1032.2 3.0
02/08:30am 2.3 0.1 1.0 91 0.5 NNE 2 4 1 2 1031.9 1031.9 3.0
02/08:00am 0.4 -2.4 -0.6 93 0.4 N 4 4 2 2 1031.5 - 3.0
02/07:30am 0.1 -2.7 -0.3 97 0.1 N 4 4 2 2 1031.1 1031.1 3.0
02/07:00am -0.6 -3.9 -1.2 96 0.2 N 6 6 3 3 1030.5 - 3.0
02/06:30am 0.1 -2.7 -0.3 97 0.1 N 4 6 2 3 1030.3 1030.4 3.0
02/06:00am -0.3 -3.6 -0.9 96 0.2 N 6 6 3 3 1029.9 1030.0 3.0
02/05:30am 0.0 -2.4 -0.6 96 0.2 NW 2 6 1 3 1029.5 1029.6 3.0
02/05:00am -1.0 -4.5 -1.6 96 0.2 NNW 7 9 4 5 1029.1 - 3.0
02/04:30am -0.8 -4.3 -1.4 96 0.2 NNW 7 9 4 5 1028.9 1029.0 3.0
02/04:00am -0.4 -3.7 -1.1 95 0.2 NNE 6 6 3 3 1028.7 - 3.0
02/03:30am 0.5 -2.3 -0.1 96 0.2 NNW 4 6 2 3 1028.6 1028.7 3.0
02/03:00am 0.4 -2.8 -0.2 96 0.2 NW 6 6 3 3 1028.5 1028.6 3.0
02/02:30am 0.2 -3.0 -0.4 96 0.2 NNW 6 7 3 4 1028.3 1028.4 3.0
02/02:00am 0.2 -3.0 -0.4 96 0.2 N 6 6 3 3 1028.2 - 3.0
02/01:30am 0.0 -3.2 -0.7 95 0.2 N 6 7 3 4 1028.1 1028.2 3.0
02/01:00am 0.1 -3.1 -0.6 95 0.3 N 6 7 3 4 1027.9 - 3.0
02/12:30am 0.2 -3.0 -0.5 95 0.3 NNW 6 7 3 4 1027.9 1028.0 3.0
02/12:00am 0.3 -2.9 -0.4 95 0.2 NNW 6 7 3 4 1027.7 1027.8 3.0
 
Date/Time
CST
Temp
°C
App
Temp
°C
Dew
Point
Rel
Hum
%
Delta-T
°C
Wind Press
QNH
hPa
Press
MSL
hPa
Rain
since 9 am
mm
Dir
 
Spd
km/h
Gust
km/h
Spd
kts
Gust
kts
01/11:30pm 0.1 -3.2 -0.9 93 0.4 N 6 7 3 4 1027.5 1027.6 3.0
01/11:00pm 1.0 -1.7 0.0 93 0.4 WNW 4 6 2 3 1027.2 - 3.0
01/10:30pm 1.5 -0.4 0.3 92 0.4 CALM 0 4 0 2 1027.1 1027.2 3.0
01/10:00pm 2.8 0.6 0.9 87 0.7 W 2 4 1 2 1026.8 - 3.0
01/09:30pm 3.6 1.9 1.6 87 0.8 CALM 0 2 0 1 1026.8 1026.9 3.0
01/09:00pm 2.0 -2.1 -0.1 86 0.8 W 11 13 6 7 1026.3 1026.4 2.8
01/08:30pm 3.4 0.2 0.8 83 1.0 WSW 7 9 4 5 1025.7 1025.8 2.8
01/08:00pm 3.4 0.2 1.0 84 0.9 W 7 7 4 4 1025.1 - 2.8
01/07:30pm 3.9 0.3 0.9 81 1.1 WSW 9 11 5 6 1024.7 1024.8 2.8
01/07:00pm 6.0 1.8 1.5 73 1.8 SW 13 19 7 10 1024.0 - 2.8
01/06:30pm 5.8 2.0 1.9 76 1.6 SW 11 13 6 7 1023.4 1023.5 2.8
01/06:00pm 6.9 2.4 2.2 72 1.9 SSW 15 22 8 12 1023.0 1023.1 2.8
01/05:30pm 7.5 3.6 3.2 74 1.8 SW 13 19 7 10 1022.3 1022.4 2.8
01/05:00pm 7.3 3.4 3.4 76 1.7 SW 13 17 7 9 1021.7 - 2.8
01/04:30pm 8.2 3.9 3.1 70 2.2 SW 15 19 8 10 1020.9 1021.0 2.8
01/04:04pm 8.6 1.7 2.8 67 2.5 SW 28 52 15 28 1020.6 - 2.8
01/04:00pm 9.9 3.8 3.0 62 3.0 SW 24 35 13 19 1020.4 - 2.8
01/03:30pm 9.2 3.2 3.6 68 2.4 SW 24 39 13 21 1019.7 1019.8 2.8
01/03:00pm 10.1 3.6 2.7 60 3.2 SW 26 35 14 19 1019.0 1019.1 2.8
01/02:30pm 9.7 2.9 3.2 64 2.8 SSW 28 37 15 20 1018.6 1018.7 2.8
01/02:00pm 8.8 2.1 3.6 70 2.2 SSW 28 52 15 28 1017.9 - 2.8
01/01:30pm 9.5 3.4 4.9 73 2.1 SSW 26 39 14 21 1017.4 1017.4 2.8
01/01:00pm 6.5 -0.9 3.8 83 1.1 S 32 52 17 28 1017.2 - 2.8
01/12:53pm 6.6 -2.5 3.8 82 1.2 S 41 63 22 34 1017.1 - 2.8
01/12:48pm 7.2 -3.4 3.3 76 1.6 S 48 63 26 34 1016.8 - 2.8
01/12:38pm 9.7 2.4 4.5 70 2.3 SW 32 54 17 29 1016.4 - 2.4
01/12:30pm 10.5 5.1 6.3 75 2.0 WSW 24 33 13 18 1016.3 1016.3 2.4
01/12:00pm 9.2 4.4 5.6 78 1.6 WSW 20 32 11 17 1016.1 1016.1 2.4
01/11:32am 8.6 1.5 5.5 81 1.4 SSW 32 50 17 27 1016.1 - 2.4
01/11:30am 8.2 0.8 5.1 81 1.4 SSW 33 50 18 27 1016.1 1016.1 2.4
01/11:15am 6.4 -1.3 3.2 80 1.3 SW 33 41 18 22 1016.0 - 2.4
01/11:02am 7.2 -5.3 2.3 71 2.0 WSW 57 87 31 47 1014.7 - 2.2
01/11:00am 10.7 5.2 6.1 73 2.1 WSW 24 39 13 21 1014.8 - 1.8
01/10:30am 8.3 3.3 4.5 77 1.7 SW 20 26 11 14 1014.6 1014.6 1.8
01/10:00am 5.8 -1.9 3.6 86 0.9 SW 33 50 18 27 1014.4 - 1.8
01/09:41am 5.9 -2.6 2.9 81 1.2 WSW 37 50 20 27 1013.3 - 1.6
01/09:30am 6.1 -1.7 3.1 81 1.2 SW 33 54 18 29 1013.3 1013.3 1.4
01/09:04am 6.0 -3.9 3.0 81 1.2 SW 44 63 24 34 1012.5 - 0.4
01/09:00am 6.2 -4.3 3.4 82 1.2 SW 48 63 26 34 1012.4 1012.4 19.0
01/08:37am 6.8 -0.3 3.8 81 1.3 WSW 30 48 16 26 1011.2 - 18.2
01/08:30am 6.9 1.0 3.9 81 1.3 WSW 24 37 13 20 1010.7 1010.7 18.2
01/08:00am 6.5 1.0 4.0 84 1.1 SW 22 32 12 17 1010.5 - 18.0
01/07:43am 6.1 -1.4 3.3 82 1.2 SW 32 50 17 27 1010.0 - 18.0
01/07:38am 6.4 -2.4 3.4 81 1.3 SSW 39 50 21 27 1009.9 - 18.0
01/07:33am 6.5 -0.2 3.5 81 1.3 WSW 28 48 15 26 1009.8 - 18.0
01/07:30am 6.3 0.0 3.5 82 1.2 WSW 26 35 14 19 1009.8 1009.8 18.0
01/07:13am 6.4 -0.5 2.5 76 1.6 WSW 28 54 15 29 1008.8 - 18.0
01/07:00am 5.7 -0.5 2.4 79 1.3 WSW 24 41 13 22 1008.8 - 18.0
01/06:57am 5.6 -1.3 2.6 81 1.2 WSW 28 48 15 26 1008.6 - 18.0
01/06:49am 5.4 -3.2 2.6 82 1.1 WSW 37 48 20 26 1009.1 - 18.0
01/06:45am 5.5 -7.7 2.3 80 1.3 W 61 82 33 44 1009.0 - 17.6
01/06:44am 6.0 -7.9 2.5 78 1.4 W 65 82 35 44 1008.8 - 17.6
01/06:43am 6.6 -0.2 3.0 78 1.5 W 28 80 15 43 1008.6 - 17.6
01/06:30am 6.7 0.7 3.3 79 1.4 W 24 32 13 17 1008.1 1008.1 17.4
01/06:00am 6.3 -0.4 3.5 82 1.2 WSW 28 43 15 23 1007.7 1007.7 17.4
01/05:58am 6.3 -0.4 3.6 83 1.1 WSW 28 43 15 23 1007.9 - 17.4
01/05:30am 4.8 1.6 3.1 89 0.7 WNW 9 13 5 7 1007.3 1007.3 17.4
01/05:00am 5.6 0.0 3.4 86 0.9 W 22 43 12 23 1007.5 - 17.4
01/04:30am 5.5 0.4 3.3 86 0.9 NW 19 26 10 14 1006.5 1006.5 16.6
01/04:00am 5.5 0.3 3.8 89 0.7 WSW 20 43 11 23 1007.0 - 16.6
01/03:53am 5.8 -1.6 4.0 88 0.8 SW 32 52 17 28 1007.3 - 16.4
01/03:46am 5.9 -1.0 4.5 91 0.6 W 30 43 16 23 1007.5 - 16.4
01/03:30am 4.7 0.8 3.5 92 0.5 NNW 13 20 7 11 1007.0 1007.0 15.8
01/03:00am 5.2 0.5 3.2 87 0.8 WNW 17 22 9 12 1007.2 1007.2 13.8
01/02:30am 7.0 1.1 4.1 82 1.3 WNW 24 30 13 16 1006.5 1006.5 13.2
01/02:00am 6.4 1.9 4.2 86 0.9 NNW 17 24 9 13 1007.0 - 13.0
01/01:30am 6.7 2.9 4.0 83 1.2 WNW 13 22 7 12 1006.8 1006.8 13.0
01/01:00am 6.6 1.5 4.3 85 1.0 NW 20 26 11 14 1006.7 - 13.0
01/12:40am 6.7 -2.4 4.0 83 1.2 NW 41 63 22 34 1007.1 - 12.6
01/12:30am 5.7 0.7 3.5 86 0.9 NNW 19 24 10 13 1006.7 1006.7 12.6
01/12:00am 6.0 0.8 3.8 86 0.9 NW 20 26 11 14 1007.1 1007.1 12.4
 
Date/Time
CST
Temp
°C
App
Temp
°C
Dew
Point
Rel
Hum
%
Delta-T
°C
Wind Press
QNH
hPa
Press
MSL
hPa
Rain
since 9 am
mm
Dir
 
Spd
km/h
Gust
km/h
Spd
kts
Gust
kts
31/11:30pm 6.1 0.2 3.9 86 0.9 WNW 24 32 13 17 1007.0 1007.0 12.4
31/11:00pm 7.0 0.2 3.3 77 1.6 NW 28 48 15 26 1007.3 - 12.4
31/10:30pm 6.3 1.3 3.5 82 1.2 NW 19 24 10 13 1007.0 1007.0 12.4
31/10:00pm 5.2 1.5 2.6 83 1.1 WNW 11 13 6 7 1007.3 - 12.4
31/09:30pm 5.3 0.7 1.8 78 1.4 W 15 20 8 11 1007.2 1007.2 12.4
31/09:00pm 7.1 0.6 2.6 73 1.9 W 26 37 14 20 1006.9 1006.9 12.4
31/08:58pm 7.4 0.5 2.7 72 2.0 W 28 37 15 20 1006.8 - 12.4
31/08:30pm 6.0 1.6 2.8 80 1.3 W 15 19 8 10 1006.6 1006.6 12.4
31/08:00pm 6.3 2.5 3.8 84 1.1 W 13 17 7 9 1006.2 - 12.4
31/07:30pm 7.3 2.9 4.6 83 1.2 W 17 20 9 11 1005.8 1005.8 12.4
31/07:00pm 7.5 1.7 4.5 81 1.3 W 24 32 13 17 1005.5 - 12.4
31/06:40pm 8.1 1.5 4.1 76 1.7 W 28 48 15 26 1005.2 - 12.4
31/06:30pm 7.7 2.4 5.2 84 1.1 W 22 32 12 17 1005.3 1005.3 12.4
31/06:10pm 7.8 1.4 5.1 83 1.2 W 28 43 15 23 1004.8 - 12.0
31/06:00pm 7.6 3.3 5.1 84 1.1 WNW 17 22 9 12 1005.0 1005.0 12.0
31/05:30pm 7.5 1.6 5.6 88 0.9 WSW 26 39 14 21 1004.8 1004.8 11.8
31/05:09pm 8.2 2.0 6.2 87 0.9 WSW 28 46 15 25 1004.3 - 11.6
31/05:00pm 8.3 2.6 6.8 90 0.7 WSW 26 37 14 20 1003.9 - 11.2
31/04:34pm 8.9 0.4 6.9 87 0.9 WSW 41 52 22 28 1003.1 - 11.0
31/04:30pm 9.7 5.7 8.1 90 0.8 W 19 24 10 13 1003.1 1003.1 11.0
31/04:00pm 9.7 4.7 8.1 90 0.8 WNW 24 32 13 17 1002.6 - 9.6
31/03:30pm 9.8 4.1 8.2 90 0.8 WNW 28 39 15 21 1002.6 1002.6 9.4
31/03:00pm 10.0 5.1 8.4 90 0.8 W 24 33 13 18 1002.1 1002.1 8.8
31/02:30pm 9.4 5.4 8.3 93 0.5 W 19 26 10 14 1002.0 1002.0 8.2
31/02:00pm 9.6 3.5 8.2 91 0.7 WSW 30 39 16 21 1001.9 - 7.0
31/01:37pm 10.0 3.6 8.6 91 0.7 W 32 50 17 27 1001.8 - 6.0
31/01:30pm 9.9 3.9 8.7 92 0.6 W 30 39 16 21 1001.7 1001.7 5.6
31/01:00pm 9.8 4.9 8.6 92 0.6 WSW 24 32 13 17 1001.4 - 3.8
31/12:30pm 10.3 3.8 8.9 91 0.7 WSW 33 44 18 24 1001.0 1001.0 2.0
31/12:00pm 10.8 3.2 9.2 90 0.8 WSW 39 52 21 28 1001.0 1001.0 0.6
31/11:52am 11.0 3.5 9.3 89 0.9 WSW 39 48 21 26 1000.9 - 0.4
31/11:46am 12.3 0.3 8.0 75 2.1 WSW 61 83 33 45 1000.4 - 0.0
31/11:30am 16.1 5.7 9.1 63 3.6 NW 54 74 29 40 1000.0 1000.0 0.0
31/11:15am 16.0 5.9 9.0 63 3.6 NW 52 72 28 39 1000.2 - 0.0
31/11:00am 16.0 6.3 9.0 63 3.6 NW 50 69 27 37 1000.4 - 0.0
31/10:36am 16.6 8.4 10.5 67 3.2 NW 44 65 24 35 1000.6 - 0.0
31/10:30am 16.0 7.5 9.4 65 3.4 NNW 44 61 24 33 1000.6 1000.6 0.0
31/10:17am 15.9 8.1 9.6 66 3.3 NW 41 61 22 33 1000.8 - 0.0
31/10:00am 15.2 7.0 9.8 70 2.8 NNW 43 59 23 32 1001.1 - 0.0
31/09:33am 14.6 7.1 9.4 71 2.7 NNW 39 57 21 31 1001.5 - 0.0
31/09:30am 14.4 6.8 9.2 71 2.7 NNW 39 57 21 31 1001.4 1001.4 0.0
31/09:00am 13.6 6.7 8.7 72 2.5 NNW 35 44 19 24 1002.0 1002.0 0.0
31/08:30am 12.7 6.5 7.8 72 2.4 NNW 30 37 16 20 1002.4 1002.4 0.0
31/08:00am 12.1 6.1 7.2 72 2.4 NNW 28 37 15 20 1002.7 - 0.0
31/07:30am 11.8 5.4 6.9 72 2.4 NNW 30 41 16 22 1003.0 1003.0 0.0
31/07:00am 11.7 4.9 6.8 72 2.3 N 32 39 17 21 1003.1 - 0.0
31/06:30am 11.6 5.5 6.7 72 2.3 N 28 37 15 20 1003.7 1003.7 0.0
31/06:00am 11.4 4.6 6.9 74 2.2 N 32 41 17 22 1003.7 1003.7 0.0
31/05:30am 10.8 5.1 6.9 77 1.9 N 26 35 14 19 1003.9 1003.9 0.0
31/05:00am 10.8 5.2 7.1 78 1.8 N 26 35 14 19 1004.5 - 0.0
31/04:30am 10.7 5.5 7.4 80 1.6 N 24 33 13 18 1004.8 1004.8 0.0
31/04:00am 10.6 5.9 7.7 82 1.4 N 22 30 12 16 1005.2 - 0.0
31/03:30am 10.8 6.1 7.9 82 1.4 N 22 28 12 15 1005.7 1005.7 0.0
31/03:00am 10.9 6.3 8.1 83 1.4 N 22 30 12 16 1006.3 1006.3 0.0
31/02:30am 11.1 6.5 8.3 83 1.4 N 22 30 12 16 1006.6 1006.6 0.0
31/02:00am 11.3 6.8 8.5 83 1.4 N 22 28 12 15 1007.1 - 0.0
31/01:30am 12.0 7.6 8.8 81 1.6 N 22 28 12 15 1007.7 1007.7 0.0
31/01:00am 13.1 7.6 9.0 76 2.1 NNW 28 37 15 20 1008.1 - 0.0
31/12:30am 13.7 7.5 9.4 75 2.2 N 32 41 17 22 1008.4 1008.4 0.0
31/12:00am 13.8 7.7 9.6 76 2.2 N 32 43 17 23 1008.9 1008.9 0.0
 
Date/Time
CST
Temp
°C
App
Temp
°C
Dew
Point
Rel
Hum
%
Delta-T
°C
Wind Press
QNH
hPa
Press
MSL
hPa
Rain
since 9 am
mm
Dir
 
Spd
km/h
Gust
km/h
Spd
kts
Gust
kts
30/11:30pm 14.0 9.1 10.0 77 2.1 N 26 39 14 21 1009.4 1009.4 0.0
30/11:00pm 14.0 9.4 9.8 76 2.2 N 24 33 13 18 1009.8 - 0.0
30/10:30pm 14.2 9.7 10.0 76 2.2 N 24 33 13 18 1010.4 1010.4 0.0
30/10:00pm 14.3 9.4 10.1 76 2.2 NNW 26 35 14 19 1010.9 - 0.0
30/09:30pm 14.2 9.0 10.4 78 2.0 NNW 28 35 15 19 1011.4 1011.4 0.0
30/09:00pm 14.0 9.7 10.8 81 1.7 N 24 32 13 17 1011.9 1011.9 0.0
30/08:30pm 14.1 9.8 10.9 81 1.7 NNW 24 32 13 17 1012.3 1012.3 0.0
30/08:00pm 14.2 10.0 11.0 81 1.7 NNW 24 32 13 17 1012.6 - 0.0
30/07:30pm 14.2 10.2 10.6 79 1.9 NNW 22 28 12 15 1012.8 1012.8 0.0
30/07:00pm 14.4 9.6 10.4 77 2.1 NW 26 33 14 18 1012.8 - 0.0
30/06:30pm 14.8 10.0 10.4 75 2.3 NW 26 39 14 21 1012.7 1012.7 0.0
30/06:00pm 14.7 9.9 10.3 75 2.3 NNW 26 33 14 18 1012.5 1012.5 0.0
30/05:30pm 14.8 10.8 10.6 76 2.2 NNW 22 28 12 15 1012.4 1012.4 0.0
30/05:00pm 15.1 10.7 10.5 74 2.4 NW 24 33 13 18 1012.5 - 0.0
30/04:30pm 15.7 11.0 10.5 71 2.8 NW 26 35 14 19 1012.5 1012.5 0.0
30/04:00pm 16.1 10.4 9.8 66 3.3 NW 30 41 16 22 1012.5 - 0.0
30/03:30pm 16.4 11.0 9.6 64 3.5 WNW 28 39 15 21 1012.8 1012.8 0.0
30/03:00pm 16.5 9.8 9.7 64 3.6 WNW 35 50 19 27 1012.9 1012.9 0.0
30/02:30pm 16.6 10.5 10.5 67 3.2 WNW 33 44 18 24 1013.2 1013.2 0.0
30/02:01pm 16.8 10.9 10.4 66 3.4 WNW 32 54 17 29 1013.3 - 0.0
30/02:00pm 16.6 10.8 10.7 68 3.1 WNW 32 44 17 24 1013.4 - 0.0
30/01:43pm 16.6 8.9 10.0 65 3.5 WNW 41 65 22 35 1013.2 - 0.0
30/01:30pm 16.4 9.2 10.5 68 3.1 WNW 39 52 21 28 1013.5 1013.5 0.0
30/01:00pm 16.3 10.0 11.2 72 2.7 NW 35 46 19 25 1013.8 - 0.0
30/12:30pm 15.8 10.7 11.8 77 2.2 NW 30 37 16 20 1014.2 1014.2 0.0
30/12:00pm 15.7 10.6 11.9 78 2.1 NW 30 39 16 21 1014.7 1014.7 0.0
30/11:30am 15.7 10.0 11.7 77 2.2 NW 33 43 18 23 1015.2 1015.2 0.0
30/11:00am 15.8 10.7 11.8 77 2.2 NW 30 41 16 22 1015.5 - 0.0
30/10:30am 16.1 10.4 11.9 76 2.3 NW 33 43 18 23 1015.7 1015.7 0.0

Other Formats:

Comma delimited format used in spreadsheet applications
http://www.bom.gov.au/fwo/IDS60801/IDS60801.95815.axf

JavaScript Object Notation format (JSON) in row-major order
http://www.bom.gov.au/fwo/IDS60801/IDS60801.95815.json